sensor_id;sensor_type;location;lat;lon;timestamp;P1;durP1;ratioP1;P2;durP2;ratioP2
7503;SDS011;3793;48.136;11.536;2022-10-14T00:01:23;8.00;;;6.30;;
7503;SDS011;3793;48.136;11.536;2022-10-14T00:03:50;8.73;;;5.93;;
7503;SDS011;3793;48.136;11.536;2022-10-14T00:06:18;9.97;;;6.13;;
7503;SDS011;3793;48.136;11.536;2022-10-14T00:08:45;9.00;;;6.47;;
7503;SDS011;3793;48.136;11.536;2022-10-14T00:11:13;9.43;;;7.20;;
7503;SDS011;3793;48.136;11.536;2022-10-14T00:13:40;8.17;;;6.17;;
7503;SDS011;3793;48.136;11.536;2022-10-14T00:16:11;9.10;;;5.40;;
7503;SDS011;3793;48.136;11.536;2022-10-14T00:18:40;6.77;;;5.73;;
7503;SDS011;3793;48.136;11.536;2022-10-14T00:21:06;8.27;;;5.87;;
7503;SDS011;3793;48.136;11.536;2022-10-14T00:23:34;6.90;;;5.20;;
7503;SDS011;3793;48.136;11.536;2022-10-14T00:26:01;7.70;;;4.93;;
7503;SDS011;3793;48.136;11.536;2022-10-14T00:28:27;7.13;;;4.90;;
7503;SDS011;3793;48.136;11.536;2022-10-14T00:30:54;10.83;;;5.60;;
7503;SDS011;3793;48.136;11.536;2022-10-14T00:33:21;7.00;;;5.13;;
7503;SDS011;3793;48.136;11.536;2022-10-14T00:35:55;6.87;;;4.87;;
7503;SDS011;3793;48.136;11.536;2022-10-14T00:38:22;6.40;;;4.90;;
7503;SDS011;3793;48.136;11.536;2022-10-14T00:40:50;8.10;;;4.77;;
7503;SDS011;3793;48.136;11.536;2022-10-14T00:43:17;6.97;;;4.47;;
7503;SDS011;3793;48.136;11.536;2022-10-14T00:45:43;7.03;;;5.10;;
7503;SDS011;3793;48.136;11.536;2022-10-14T00:48:10;7.60;;;4.60;;
7503;SDS011;3793;48.136;11.536;2022-10-14T00:50:37;10.33;;;4.80;;
7503;SDS011;3793;48.136;11.536;2022-10-14T00:53:04;5.67;;;4.80;;
7503;SDS011;3793;48.136;11.536;2022-10-14T00:55:31;8.13;;;5.03;;
7503;SDS011;3793;48.136;11.536;2022-10-14T00:57:59;6.53;;;5.40;;
7503;SDS011;3793;48.136;11.536;2022-10-14T01:00:25;7.20;;;5.20;;
7503;SDS011;3793;48.136;11.536;2022-10-14T01:02:52;9.97;;;5.23;;
7503;SDS011;3793;48.136;11.536;2022-10-14T01:05:21;6.70;;;4.63;;
7503;SDS011;3793;48.136;11.536;2022-10-14T01:07:51;7.07;;;4.50;;
7503;SDS011;3793;48.136;11.536;2022-10-14T01:10:22;6.73;;;5.30;;
7503;SDS011;3793;48.136;11.536;2022-10-14T01:12:54;8.77;;;4.47;;
7503;SDS011;3793;48.136;11.536;2022-10-14T01:15:27;5.90;;;4.53;;
7503;SDS011;3793;48.136;11.536;2022-10-14T01:18:00;8.00;;;4.77;;
7503;SDS011;3793;48.136;11.536;2022-10-14T01:20:34;4.93;;;4.43;;
7503;SDS011;3793;48.136;11.536;2022-10-14T01:23:12;5.80;;;3.70;;
7503;SDS011;3793;48.136;11.536;2022-10-14T01:25:44;5.83;;;4.30;;
7503;SDS011;3793;48.136;11.536;2022-10-14T01:28:19;7.17;;;3.70;;
7503;SDS011;3793;48.136;11.536;2022-10-14T01:30:50;6.40;;;3.70;;
7503;SDS011;3793;48.136;11.536;2022-10-14T01:33:21;5.30;;;3.10;;
7503;SDS011;3793;48.136;11.536;2022-10-14T01:35:50;4.80;;;2.97;;
7503;SDS011;3793;48.136;11.536;2022-10-14T01:38:22;3.53;;;2.90;;
7503;SDS011;3793;48.136;11.536;2022-10-14T01:40:51;3.90;;;2.50;;
7503;SDS011;3793;48.136;11.536;2022-10-14T01:43:18;5.30;;;2.57;;
7503;SDS011;3793;48.136;11.536;2022-10-14T01:45:47;6.33;;;3.10;;
7503;SDS011;3793;48.136;11.536;2022-10-14T01:48:17;3.27;;;2.70;;
7503;SDS011;3793;48.136;11.536;2022-10-14T01:50:46;5.23;;;2.93;;
7503;SDS011;3793;48.136;11.536;2022-10-14T01:53:15;3.47;;;2.90;;
7503;SDS011;3793;48.136;11.536;2022-10-14T01:55:42;3.67;;;2.30;;
7503;SDS011;3793;48.136;11.536;2022-10-14T01:58:11;2.63;;;2.20;;
7503;SDS011;3793;48.136;11.536;2022-10-14T02:00:38;3.63;;;2.50;;
7503;SDS011;3793;48.136;11.536;2022-10-14T02:03:08;4.80;;;2.70;;
7503;SDS011;3793;48.136;11.536;2022-10-14T02:05:37;3.67;;;2.63;;
7503;SDS011;3793;48.136;11.536;2022-10-14T02:08:06;3.90;;;2.53;;
7503;SDS011;3793;48.136;11.536;2022-10-14T02:10:39;4.63;;;2.77;;
7503;SDS011;3793;48.136;11.536;2022-10-14T02:13:14;4.00;;;2.80;;
7503;SDS011;3793;48.136;11.536;2022-10-14T02:15:46;2.87;;;2.50;;
7503;SDS011;3793;48.136;11.536;2022-10-14T02:18:17;3.97;;;2.60;;
7503;SDS011;3793;48.136;11.536;2022-10-14T02:20:48;4.20;;;2.90;;
7503;SDS011;3793;48.136;11.536;2022-10-14T02:23:19;5.23;;;2.87;;
7503;SDS011;3793;48.136;11.536;2022-10-14T02:25:47;3.00;;;2.60;;
7503;SDS011;3793;48.136;11.536;2022-10-14T02:28:15;2.90;;;2.50;;
7503;SDS011;3793;48.136;11.536;2022-10-14T02:30:43;5.27;;;3.07;;
7503;SDS011;3793;48.136;11.536;2022-10-14T02:33:11;3.70;;;2.60;;
7503;SDS011;3793;48.136;11.536;2022-10-14T02:35:38;2.57;;;2.37;;
7503;SDS011;3793;48.136;11.536;2022-10-14T02:38:07;4.00;;;2.90;;
7503;SDS011;3793;48.136;11.536;2022-10-14T02:40:34;5.30;;;2.77;;
7503;SDS011;3793;48.136;11.536;2022-10-14T02:43:02;4.60;;;3.20;;
7503;SDS011;3793;48.136;11.536;2022-10-14T02:45:32;4.00;;;2.87;;
7503;SDS011;3793;48.136;11.536;2022-10-14T02:47:58;4.87;;;2.80;;
7503;SDS011;3793;48.136;11.536;2022-10-14T02:50:25;3.53;;;2.67;;
7503;SDS011;3793;48.136;11.536;2022-10-14T02:52:52;4.07;;;2.87;;
7503;SDS011;3793;48.136;11.536;2022-10-14T02:55:20;6.30;;;3.37;;
7503;SDS011;3793;48.136;11.536;2022-10-14T02:57:47;4.43;;;2.93;;
7503;SDS011;3793;48.136;11.536;2022-10-14T03:00:14;3.60;;;3.00;;
7503;SDS011;3793;48.136;11.536;2022-10-14T03:02:40;4.07;;;2.90;;
7503;SDS011;3793;48.136;11.536;2022-10-14T03:05:07;4.87;;;3.10;;
7503;SDS011;3793;48.136;11.536;2022-10-14T03:07:34;3.10;;;2.77;;
7503;SDS011;3793;48.136;11.536;2022-10-14T03:10:00;6.10;;;3.53;;
7503;SDS011;3793;48.136;11.536;2022-10-14T03:12:28;4.43;;;3.13;;
7503;SDS011;3793;48.136;11.536;2022-10-14T03:14:55;4.13;;;2.73;;
7503;SDS011;3793;48.136;11.536;2022-10-14T03:17:21;5.30;;;3.17;;
7503;SDS011;3793;48.136;11.536;2022-10-14T03:19:49;4.70;;;3.40;;
7503;SDS011;3793;48.136;11.536;2022-10-14T03:22:16;6.57;;;3.53;;
7503;SDS011;3793;48.136;11.536;2022-10-14T03:24:42;4.47;;;3.50;;
7503;SDS011;3793;48.136;11.536;2022-10-14T03:27:09;5.93;;;3.40;;
7503;SDS011;3793;48.136;11.536;2022-10-14T03:29:37;4.30;;;3.57;;
7503;SDS011;3793;48.136;11.536;2022-10-14T03:32:04;9.80;;;4.20;;
7503;SDS011;3793;48.136;11.536;2022-10-14T03:34:31;8.83;;;4.40;;
7503;SDS011;3793;48.136;11.536;2022-10-14T03:37:01;8.00;;;4.07;;
7503;SDS011;3793;48.136;11.536;2022-10-14T03:39:28;5.33;;;4.10;;
7503;SDS011;3793;48.136;11.536;2022-10-14T03:41:55;9.03;;;5.00;;
7503;SDS011;3793;48.136;11.536;2022-10-14T03:44:25;9.07;;;4.73;;
7503;SDS011;3793;48.136;11.536;2022-10-14T03:46:54;6.43;;;4.10;;
7503;SDS011;3793;48.136;11.536;2022-10-14T03:49:22;8.77;;;4.77;;
7503;SDS011;3793;48.136;11.536;2022-10-14T03:51:49;6.47;;;4.30;;
7503;SDS011;3793;48.136;11.536;2022-10-14T03:54:18;4.87;;;4.20;;
7503;SDS011;3793;48.136;11.536;2022-10-14T03:56:45;5.70;;;4.37;;
7503;SDS011;3793;48.136;11.536;2022-10-14T03:59:12;5.67;;;3.97;;
7503;SDS011;3793;48.136;11.536;2022-10-14T04:01:40;7.70;;;3.87;;
7503;SDS011;3793;48.136;11.536;2022-10-14T04:04:11;7.77;;;4.10;;
7503;SDS011;3793;48.136;11.536;2022-10-14T04:06:39;5.67;;;4.40;;
7503;SDS011;3793;48.136;11.536;2022-10-14T04:09:06;4.13;;;3.60;;
7503;SDS011;3793;48.136;11.536;2022-10-14T04:11:33;5.50;;;3.73;;
7503;SDS011;3793;48.136;11.536;2022-10-14T04:14:03;4.50;;;3.50;;
7503;SDS011;3793;48.136;11.536;2022-10-14T04:16:33;5.53;;;3.97;;
7503;SDS011;3793;48.136;11.536;2022-10-14T04:19:02;4.67;;;3.20;;
7503;SDS011;3793;48.136;11.536;2022-10-14T04:21:33;5.57;;;3.67;;
7503;SDS011;3793;48.136;11.536;2022-10-14T04:24:00;4.47;;;3.90;;
7503;SDS011;3793;48.136;11.536;2022-10-14T04:26:27;3.67;;;3.37;;
7503;SDS011;3793;48.136;11.536;2022-10-14T04:28:54;5.47;;;3.53;;
7503;SDS011;3793;48.136;11.536;2022-10-14T04:31:20;4.13;;;3.50;;
7503;SDS011;3793;48.136;11.536;2022-10-14T04:33:49;5.73;;;3.67;;
7503;SDS011;3793;48.136;11.536;2022-10-14T04:36:17;6.97;;;3.97;;
7503;SDS011;3793;48.136;11.536;2022-10-14T04:38:51;5.77;;;3.20;;
7503;SDS011;3793;48.136;11.536;2022-10-14T04:41:18;5.80;;;3.80;;
7503;SDS011;3793;48.136;11.536;2022-10-14T04:43:48;6.97;;;3.63;;
7503;SDS011;3793;48.136;11.536;2022-10-14T04:46:15;6.07;;;3.70;;
7503;SDS011;3793;48.136;11.536;2022-10-14T04:48:42;4.10;;;3.70;;
7503;SDS011;3793;48.136;11.536;2022-10-14T04:51:10;7.60;;;4.10;;
7503;SDS011;3793;48.136;11.536;2022-10-14T04:53:37;5.73;;;3.90;;
7503;SDS011;3793;48.136;11.536;2022-10-14T04:56:06;4.93;;;3.70;;
7503;SDS011;3793;48.136;11.536;2022-10-14T04:58:35;5.10;;;3.70;;
7503;SDS011;3793;48.136;11.536;2022-10-14T05:01:04;6.20;;;3.63;;
7503;SDS011;3793;48.136;11.536;2022-10-14T05:03:31;6.53;;;3.97;;
7503;SDS011;3793;48.136;11.536;2022-10-14T05:06:00;4.83;;;3.83;;
7503;SDS011;3793;48.136;11.536;2022-10-14T05:08:29;5.27;;;3.73;;
7503;SDS011;3793;48.136;11.536;2022-10-14T05:10:57;4.07;;;3.20;;
7503;SDS011;3793;48.136;11.536;2022-10-14T05:13:26;4.37;;;3.40;;
7503;SDS011;3793;48.136;11.536;2022-10-14T05:15:53;4.53;;;3.57;;
7503;SDS011;3793;48.136;11.536;2022-10-14T05:18:19;4.50;;;3.47;;
7503;SDS011;3793;48.136;11.536;2022-10-14T05:20:48;4.90;;;3.43;;
7503;SDS011;3793;48.136;11.536;2022-10-14T05:23:16;4.07;;;3.60;;
7503;SDS011;3793;48.136;11.536;2022-10-14T05:25:45;9.40;;;3.50;;
7503;SDS011;3793;48.136;11.536;2022-10-14T05:28:18;5.17;;;3.70;;
7503;SDS011;3793;48.136;11.536;2022-10-14T05:30:55;5.93;;;3.83;;
7503;SDS011;3793;48.136;11.536;2022-10-14T05:33:22;5.37;;;3.50;;
7503;SDS011;3793;48.136;11.536;2022-10-14T05:35:50;6.27;;;3.70;;
7503;SDS011;3793;48.136;11.536;2022-10-14T05:38:21;4.67;;;3.90;;
7503;SDS011;3793;48.136;11.536;2022-10-14T05:40:54;7.83;;;4.10;;
7503;SDS011;3793;48.136;11.536;2022-10-14T05:43:25;4.80;;;3.43;;
7503;SDS011;3793;48.136;11.536;2022-10-14T05:45:56;4.33;;;3.10;;
7503;SDS011;3793;48.136;11.536;2022-10-14T05:48:26;5.80;;;3.60;;
7503;SDS011;3793;48.136;11.536;2022-10-14T05:50:57;5.73;;;3.70;;
7503;SDS011;3793;48.136;11.536;2022-10-14T05:53:30;7.63;;;3.67;;
7503;SDS011;3793;48.136;11.536;2022-10-14T05:56:07;5.40;;;3.90;;
7503;SDS011;3793;48.136;11.536;2022-10-14T05:58:43;4.67;;;3.50;;
7503;SDS011;3793;48.136;11.536;2022-10-14T06:01:26;4.90;;;3.63;;
7503;SDS011;3793;48.136;11.536;2022-10-14T06:04:04;6.17;;;3.70;;
7503;SDS011;3793;48.136;11.536;2022-10-14T06:06:34;5.13;;;3.50;;
7503;SDS011;3793;48.136;11.536;2022-10-14T06:09:04;4.33;;;3.40;;
7503;SDS011;3793;48.136;11.536;2022-10-14T06:11:37;4.07;;;3.40;;
7503;SDS011;3793;48.136;11.536;2022-10-14T06:14:05;5.13;;;3.20;;
7503;SDS011;3793;48.136;11.536;2022-10-14T06:16:40;3.80;;;3.33;;
7503;SDS011;3793;48.136;11.536;2022-10-14T06:19:12;4.27;;;3.60;;
7503;SDS011;3793;48.136;11.536;2022-10-14T06:21:46;5.47;;;3.30;;
7503;SDS011;3793;48.136;11.536;2022-10-14T06:24:22;3.77;;;3.17;;
7503;SDS011;3793;48.136;11.536;2022-10-14T06:26:50;6.43;;;3.43;;
7503;SDS011;3793;48.136;11.536;2022-10-14T06:29:25;5.30;;;3.17;;
7503;SDS011;3793;48.136;11.536;2022-10-14T06:31:57;5.07;;;3.40;;
7503;SDS011;3793;48.136;11.536;2022-10-14T06:34:29;6.80;;;3.57;;
7503;SDS011;3793;48.136;11.536;2022-10-14T06:37:01;3.67;;;3.20;;
7503;SDS011;3793;48.136;11.536;2022-10-14T06:39:31;4.10;;;3.30;;
7503;SDS011;3793;48.136;11.536;2022-10-14T06:42:01;8.47;;;3.57;;
7503;SDS011;3793;48.136;11.536;2022-10-14T06:44:33;4.80;;;3.67;;
7503;SDS011;3793;48.136;11.536;2022-10-14T06:47:07;3.63;;;3.03;;
7503;SDS011;3793;48.136;11.536;2022-10-14T06:49:43;5.63;;;3.07;;
7503;SDS011;3793;48.136;11.536;2022-10-14T06:52:13;4.63;;;3.27;;
7503;SDS011;3793;48.136;11.536;2022-10-14T06:54:42;4.97;;;3.53;;
7503;SDS011;3793;48.136;11.536;2022-10-14T06:57:14;5.70;;;3.60;;
7503;SDS011;3793;48.136;11.536;2022-10-14T06:59:45;4.77;;;3.27;;
7503;SDS011;3793;48.136;11.536;2022-10-14T07:02:23;6.67;;;3.17;;
7503;SDS011;3793;48.136;11.536;2022-10-14T07:04:59;4.10;;;3.00;;
7503;SDS011;3793;48.136;11.536;2022-10-14T07:07:26;6.27;;;3.13;;
7503;SDS011;3793;48.136;11.536;2022-10-14T07:09:55;4.43;;;3.07;;
7503;SDS011;3793;48.136;11.536;2022-10-14T07:12:31;4.07;;;2.63;;
7503;SDS011;3793;48.136;11.536;2022-10-14T07:15:20;7.70;;;2.80;;
7503;SDS011;3793;48.136;11.536;2022-10-14T07:17:52;4.63;;;3.20;;
7503;SDS011;3793;48.136;11.536;2022-10-14T07:20:19;4.57;;;3.07;;
7503;SDS011;3793;48.136;11.536;2022-10-14T07:23:10;5.27;;;3.00;;
7503;SDS011;3793;48.136;11.536;2022-10-14T07:25:43;3.87;;;2.70;;
7503;SDS011;3793;48.136;11.536;2022-10-14T07:28:24;4.73;;;2.77;;
7503;SDS011;3793;48.136;11.536;2022-10-14T07:30:58;4.70;;;3.10;;
7503;SDS011;3793;48.136;11.536;2022-10-14T07:36:09;6.33;;;2.53;;
7503;SDS011;3793;48.136;11.536;2022-10-14T07:38:36;2.73;;;2.20;;
7503;SDS011;3793;48.136;11.536;2022-10-14T07:41:03;4.30;;;2.43;;
7503;SDS011;3793;48.136;11.536;2022-10-14T07:43:30;5.60;;;2.60;;
7503;SDS011;3793;48.136;11.536;2022-10-14T07:45:59;3.83;;;2.43;;
7503;SDS011;3793;48.136;11.536;2022-10-14T07:48:27;4.63;;;2.80;;
7503;SDS011;3793;48.136;11.536;2022-10-14T07:50:54;3.60;;;2.50;;
7503;SDS011;3793;48.136;11.536;2022-10-14T07:53:22;3.63;;;2.20;;
7503;SDS011;3793;48.136;11.536;2022-10-14T07:55:49;4.03;;;2.07;;
7503;SDS011;3793;48.136;11.536;2022-10-14T07:58:18;3.20;;;2.33;;
7503;SDS011;3793;48.136;11.536;2022-10-14T08:00:45;2.80;;;2.00;;
7503;SDS011;3793;48.136;11.536;2022-10-14T08:03:11;3.13;;;2.00;;
7503;SDS011;3793;48.136;11.536;2022-10-14T08:05:38;4.73;;;2.17;;
7503;SDS011;3793;48.136;11.536;2022-10-14T08:08:04;2.57;;;1.80;;
7503;SDS011;3793;48.136;11.536;2022-10-14T08:10:32;1.93;;;1.70;;
7503;SDS011;3793;48.136;11.536;2022-10-14T08:12:59;2.33;;;1.67;;
7503;SDS011;3793;48.136;11.536;2022-10-14T08:15:25;2.00;;;1.70;;
7503;SDS011;3793;48.136;11.536;2022-10-14T08:17:54;5.20;;;1.73;;
7503;SDS011;3793;48.136;11.536;2022-10-14T08:20:20;2.60;;;1.40;;
7503;SDS011;3793;48.136;11.536;2022-10-14T08:22:47;5.17;;;1.30;;
7503;SDS011;3793;48.136;11.536;2022-10-14T08:25:13;2.20;;;1.40;;
7503;SDS011;3793;48.136;11.536;2022-10-14T08:27:42;1.35;;;1.25;;
7503;SDS011;3793;48.136;11.536;2022-10-14T08:30:09;4.10;;;1.45;;
7503;SDS011;3793;48.136;11.536;2022-10-14T08:32:36;2.30;;;1.50;;
7503;SDS011;3793;48.136;11.536;2022-10-14T08:35:02;2.15;;;1.40;;
7503;SDS011;3793;48.136;11.536;2022-10-14T08:37:29;2.35;;;1.50;;
7503;SDS011;3793;48.136;11.536;2022-10-14T08:39:56;2.58;;;1.20;;
7503;SDS011;3793;48.136;11.536;2022-10-14T08:42:26;3.17;;;1.50;;
7503;SDS011;3793;48.136;11.536;2022-10-14T08:44:58;2.92;;;1.13;;
7503;SDS011;3793;48.136;11.536;2022-10-14T08:47:29;2.35;;;1.55;;
7503;SDS011;3793;48.136;11.536;2022-10-14T08:49:59;3.08;;;1.35;;
7503;SDS011;3793;48.136;11.536;2022-10-14T08:52:29;1.95;;;1.55;;
7503;SDS011;3793;48.136;11.536;2022-10-14T08:54:57;2.05;;;1.30;;
7503;SDS011;3793;48.136;11.536;2022-10-14T08:57:25;1.75;;;1.27;;
7503;SDS011;3793;48.136;11.536;2022-10-14T08:59:52;1.45;;;1.17;;
7503;SDS011;3793;48.136;11.536;2022-10-14T09:02:23;1.10;;;1.00;;
7503;SDS011;3793;48.136;11.536;2022-10-14T09:04:52;2.45;;;1.25;;
7503;SDS011;3793;48.136;11.536;2022-10-14T09:07:19;1.90;;;1.27;;
7503;SDS011;3793;48.136;11.536;2022-10-14T09:09:46;2.10;;;1.55;;
7503;SDS011;3793;48.136;11.536;2022-10-14T09:12:16;5.78;;;1.38;;
7503;SDS011;3793;48.136;11.536;2022-10-14T09:14:43;2.55;;;1.15;;
7503;SDS011;3793;48.136;11.536;2022-10-14T09:17:12;2.08;;;1.30;;
7503;SDS011;3793;48.136;11.536;2022-10-14T09:19:42;1.67;;;0.90;;
7503;SDS011;3793;48.136;11.536;2022-10-14T09:22:12;1.70;;;1.10;;
7503;SDS011;3793;48.136;11.536;2022-10-14T09:24:39;2.58;;;0.93;;
7503;SDS011;3793;48.136;11.536;2022-10-14T09:27:10;1.35;;;0.93;;
7503;SDS011;3793;48.136;11.536;2022-10-14T09:29:39;2.13;;;0.90;;
7503;SDS011;3793;48.136;11.536;2022-10-14T09:32:08;1.77;;;1.10;;
7503;SDS011;3793;48.136;11.536;2022-10-14T09:34:38;1.60;;;1.02;;
7503;SDS011;3793;48.136;11.536;2022-10-14T09:37:21;2.35;;;1.45;;
7503;SDS011;3793;48.136;11.536;2022-10-14T09:39:52;2.15;;;1.17;;
7503;SDS011;3793;48.136;11.536;2022-10-14T09:42:23;1.10;;;1.00;;
7503;SDS011;3793;48.136;11.536;2022-10-14T09:45:04;2.55;;;0.95;;
7503;SDS011;3793;48.136;11.536;2022-10-14T09:47:31;1.60;;;1.20;;
7503;SDS011;3793;48.136;11.536;2022-10-14T09:50:00;1.30;;;1.00;;
7503;SDS011;3793;48.136;11.536;2022-10-14T09:52:34;1.27;;;0.85;;
7503;SDS011;3793;48.136;11.536;2022-10-14T09:55:03;0.85;;;0.85;;
7503;SDS011;3793;48.136;11.536;2022-10-14T09:57:39;1.45;;;0.77;;
7503;SDS011;3793;48.136;11.536;2022-10-14T10:00:23;1.13;;;0.88;;
7503;SDS011;3793;48.136;11.536;2022-10-14T10:02:58;1.50;;;1.15;;
7503;SDS011;3793;48.136;11.536;2022-10-14T10:05:42;0.95;;;0.60;;
7503;SDS011;3793;48.136;11.536;2022-10-14T10:08:24;1.40;;;0.95;;
7503;SDS011;3793;48.136;11.536;2022-10-14T10:11:08;0.75;;;0.75;;
7503;SDS011;3793;48.136;11.536;2022-10-14T10:13:39;1.88;;;1.15;;
7503;SDS011;3793;48.136;11.536;2022-10-14T10:16:16;1.00;;;0.90;;
7503;SDS011;3793;48.136;11.536;2022-10-14T10:18:44;1.80;;;1.20;;
7503;SDS011;3793;48.136;11.536;2022-10-14T10:21:14;1.38;;;1.17;;
7503;SDS011;3793;48.136;11.536;2022-10-14T10:23:50;1.67;;;0.60;;
7503;SDS011;3793;48.136;11.536;2022-10-14T10:26:17;3.58;;;1.00;;
7503;SDS011;3793;48.136;11.536;2022-10-14T10:28:46;2.25;;;0.98;;
7503;SDS011;3793;48.136;11.536;2022-10-14T10:34:03;1.20;;;1.00;;
7503;SDS011;3793;48.136;11.536;2022-10-14T10:36:32;1.58;;;0.82;;
7503;SDS011;3793;48.136;11.536;2022-10-14T10:39:02;2.63;;;1.00;;
7503;SDS011;3793;48.136;11.536;2022-10-14T10:41:41;2.08;;;1.25;;
7503;SDS011;3793;48.136;11.536;2022-10-14T10:44:19;1.05;;;0.90;;
7503;SDS011;3793;48.136;11.536;2022-10-14T10:46:56;1.42;;;0.90;;
7503;SDS011;3793;48.136;11.536;2022-10-14T10:49:30;2.85;;;1.13;;
7503;SDS011;3793;48.136;11.536;2022-10-14T10:52:05;1.38;;;0.80;;
7503;SDS011;3793;48.136;11.536;2022-10-14T10:54:39;1.40;;;0.90;;
7503;SDS011;3793;48.136;11.536;2022-10-14T10:57:07;1.25;;;1.05;;
7503;SDS011;3793;48.136;11.536;2022-10-14T10:59:47;1.25;;;1.10;;
7503;SDS011;3793;48.136;11.536;2022-10-14T11:02:29;2.42;;;0.98;;
7503;SDS011;3793;48.136;11.536;2022-10-14T11:05:01;3.85;;;1.05;;
7503;SDS011;3793;48.136;11.536;2022-10-14T11:07:31;1.02;;;0.80;;
7503;SDS011;3793;48.136;11.536;2022-10-14T11:10:20;1.85;;;0.93;;
7503;SDS011;3793;48.136;11.536;2022-10-14T11:13:07;3.17;;;1.23;;
7503;SDS011;3793;48.136;11.536;2022-10-14T11:15:43;1.23;;;1.00;;
7503;SDS011;3793;48.136;11.536;2022-10-14T11:18:13;1.40;;;0.93;;
7503;SDS011;3793;48.136;11.536;2022-10-14T11:20:48;2.15;;;0.73;;
7503;SDS011;3793;48.136;11.536;2022-10-14T11:23:27;1.55;;;1.13;;
7503;SDS011;3793;48.136;11.536;2022-10-14T11:26:01;1.50;;;1.40;;
7503;SDS011;3793;48.136;11.536;2022-10-14T11:28:31;1.55;;;0.80;;
7503;SDS011;3793;48.136;11.536;2022-10-14T11:31:02;2.80;;;0.95;;
7503;SDS011;3793;48.136;11.536;2022-10-14T11:33:35;2.60;;;1.20;;
7503;SDS011;3793;48.136;11.536;2022-10-14T11:36:06;2.80;;;1.15;;
7503;SDS011;3793;48.136;11.536;2022-10-14T11:38:38;1.50;;;1.10;;
7503;SDS011;3793;48.136;11.536;2022-10-14T11:41:09;2.20;;;1.00;;
7503;SDS011;3793;48.136;11.536;2022-10-14T11:43:40;1.77;;;1.17;;
7503;SDS011;3793;48.136;11.536;2022-10-14T11:46:08;3.47;;;1.45;;
7503;SDS011;3793;48.136;11.536;2022-10-14T11:48:37;2.22;;;1.30;;
7503;SDS011;3793;48.136;11.536;2022-10-14T11:51:10;1.15;;;0.93;;
7503;SDS011;3793;48.136;11.536;2022-10-14T11:53:41;1.25;;;0.90;;
7503;SDS011;3793;48.136;11.536;2022-10-14T11:56:22;1.17;;;0.90;;
7503;SDS011;3793;48.136;11.536;2022-10-14T11:58:50;1.33;;;0.93;;
7503;SDS011;3793;48.136;11.536;2022-10-14T12:01:18;3.88;;;1.17;;
7503;SDS011;3793;48.136;11.536;2022-10-14T12:03:48;1.33;;;1.00;;
7503;SDS011;3793;48.136;11.536;2022-10-14T12:06:17;0.85;;;0.85;;
7503;SDS011;3793;48.136;11.536;2022-10-14T12:08:46;2.08;;;1.13;;
7503;SDS011;3793;48.136;11.536;2022-10-14T12:11:20;2.58;;;0.93;;
7503;SDS011;3793;48.136;11.536;2022-10-14T12:13:50;2.53;;;1.17;;
7503;SDS011;3793;48.136;11.536;2022-10-14T12:16:18;5.07;;;1.20;;
7503;SDS011;3793;48.136;11.536;2022-10-14T12:18:46;0.77;;;0.70;;
7503;SDS011;3793;48.136;11.536;2022-10-14T12:21:16;1.73;;;0.88;;
7503;SDS011;3793;48.136;11.536;2022-10-14T12:23:44;1.27;;;1.10;;
7503;SDS011;3793;48.136;11.536;2022-10-14T12:26:14;0.98;;;0.88;;
7503;SDS011;3793;48.136;11.536;2022-10-14T12:28:45;1.10;;;1.00;;
7503;SDS011;3793;48.136;11.536;2022-10-14T12:31:18;1.90;;;1.30;;
7503;SDS011;3793;48.136;11.536;2022-10-14T12:36:29;0.98;;;0.90;;
7503;SDS011;3793;48.136;11.536;2022-10-14T12:41:45;4.68;;;0.93;;
7503;SDS011;3793;48.136;11.536;2022-10-14T12:44:19;3.10;;;1.20;;
7503;SDS011;3793;48.136;11.536;2022-10-14T12:46:47;4.28;;;1.45;;
7503;SDS011;3793;48.136;11.536;2022-10-14T12:49:17;2.58;;;1.10;;
7503;SDS011;3793;48.136;11.536;2022-10-14T12:51:51;2.58;;;1.10;;
7503;SDS011;3793;48.136;11.536;2022-10-14T12:54:18;2.67;;;1.73;;
7503;SDS011;3793;48.136;11.536;2022-10-14T12:56:52;2.00;;;1.30;;
7503;SDS011;3793;48.136;11.536;2022-10-14T12:59:23;2.05;;;1.10;;
7503;SDS011;3793;48.136;11.536;2022-10-14T13:01:53;3.53;;;1.55;;
7503;SDS011;3793;48.136;11.536;2022-10-14T13:04:20;1.40;;;1.17;;
7503;SDS011;3793;48.136;11.536;2022-10-14T13:09:30;1.52;;;1.10;;
7503;SDS011;3793;48.136;11.536;2022-10-14T13:14:55;3.85;;;1.42;;
7503;SDS011;3793;48.136;11.536;2022-10-14T13:17:27;1.30;;;1.20;;
7503;SDS011;3793;48.136;11.536;2022-10-14T13:19:53;3.90;;;1.40;;
7503;SDS011;3793;48.136;11.536;2022-10-14T13:22:33;3.10;;;1.23;;
7503;SDS011;3793;48.136;11.536;2022-10-14T13:25:00;2.05;;;1.30;;
7503;SDS011;3793;48.136;11.536;2022-10-14T13:27:33;3.17;;;1.10;;
7503;SDS011;3793;48.136;11.536;2022-10-14T13:30:04;2.88;;;1.17;;
7503;SDS011;3793;48.136;11.536;2022-10-14T13:32:32;2.40;;;1.20;;
7503;SDS011;3793;48.136;11.536;2022-10-14T13:35:03;3.05;;;1.00;;
7503;SDS011;3793;48.136;11.536;2022-10-14T13:37:34;5.88;;;1.40;;
7503;SDS011;3793;48.136;11.536;2022-10-14T13:40:06;2.40;;;1.33;;
7503;SDS011;3793;48.136;11.536;2022-10-14T13:42:37;5.22;;;1.73;;
7503;SDS011;3793;48.136;11.536;2022-10-14T13:45:12;2.47;;;1.23;;
7503;SDS011;3793;48.136;11.536;2022-10-14T13:47:48;3.33;;;1.73;;
7503;SDS011;3793;48.136;11.536;2022-10-14T13:50:20;3.97;;;1.52;;
7503;SDS011;3793;48.136;11.536;2022-10-14T13:52:49;2.40;;;1.10;;
7503;SDS011;3793;48.136;11.536;2022-10-14T13:55:19;3.80;;;1.40;;
7503;SDS011;3793;48.136;11.536;2022-10-14T13:57:58;2.47;;;1.25;;
7503;SDS011;3793;48.136;11.536;2022-10-14T14:00:33;2.65;;;1.23;;
7503;SDS011;3793;48.136;11.536;2022-10-14T14:03:00;3.22;;;1.40;;
7503;SDS011;3793;48.136;11.536;2022-10-14T14:05:29;3.15;;;1.27;;
7503;SDS011;3793;48.136;11.536;2022-10-14T14:07:59;1.98;;;1.35;;
7503;SDS011;3793;48.136;11.536;2022-10-14T14:10:26;2.95;;;1.50;;
7503;SDS011;3793;48.136;11.536;2022-10-14T14:12:52;4.07;;;1.67;;
7503;SDS011;3793;48.136;11.536;2022-10-14T14:15:21;1.75;;;1.10;;
7503;SDS011;3793;48.136;11.536;2022-10-14T14:17:50;1.60;;;1.30;;
7503;SDS011;3793;48.136;11.536;2022-10-14T14:20:20;2.45;;;1.20;;
7503;SDS011;3793;48.136;11.536;2022-10-14T14:22:47;1.83;;;1.48;;
7503;SDS011;3793;48.136;11.536;2022-10-14T14:25:22;2.15;;;1.50;;
7503;SDS011;3793;48.136;11.536;2022-10-14T14:27:49;4.33;;;1.83;;
7503;SDS011;3793;48.136;11.536;2022-10-14T14:30:21;1.75;;;1.40;;
7503;SDS011;3793;48.136;11.536;2022-10-14T14:32:49;3.53;;;1.70;;
7503;SDS011;3793;48.136;11.536;2022-10-14T14:35:18;2.57;;;1.60;;
7503;SDS011;3793;48.136;11.536;2022-10-14T14:37:45;4.07;;;1.90;;
7503;SDS011;3793;48.136;11.536;2022-10-14T14:40:16;3.13;;;1.60;;
7503;SDS011;3793;48.136;11.536;2022-10-14T14:42:44;3.40;;;1.93;;
7503;SDS011;3793;48.136;11.536;2022-10-14T14:45:12;2.20;;;1.70;;
7503;SDS011;3793;48.136;11.536;2022-10-14T14:47:41;3.17;;;1.83;;
7503;SDS011;3793;48.136;11.536;2022-10-14T14:50:12;6.53;;;2.33;;
7503;SDS011;3793;48.136;11.536;2022-10-14T14:52:42;4.67;;;1.97;;
7503;SDS011;3793;48.136;11.536;2022-10-14T14:57:54;3.03;;;1.90;;
7503;SDS011;3793;48.136;11.536;2022-10-14T15:00:21;3.40;;;2.07;;
7503;SDS011;3793;48.136;11.536;2022-10-14T15:02:48;4.03;;;2.30;;
7503;SDS011;3793;48.136;11.536;2022-10-14T15:05:18;2.93;;;2.00;;
7503;SDS011;3793;48.136;11.536;2022-10-14T15:07:45;3.97;;;2.43;;
7503;SDS011;3793;48.136;11.536;2022-10-14T15:10:21;2.80;;;1.90;;
7503;SDS011;3793;48.136;11.536;2022-10-14T15:12:50;3.20;;;2.30;;
7503;SDS011;3793;48.136;11.536;2022-10-14T15:15:25;3.27;;;2.37;;
7503;SDS011;3793;48.136;11.536;2022-10-14T15:18:11;3.60;;;2.37;;
7503;SDS011;3793;48.136;11.536;2022-10-14T15:20:40;3.33;;;1.83;;
7503;SDS011;3793;48.136;11.536;2022-10-14T15:25:55;3.87;;;2.00;;
7503;SDS011;3793;48.136;11.536;2022-10-14T15:28:28;2.97;;;2.00;;
7503;SDS011;3793;48.136;11.536;2022-10-14T15:30:55;3.57;;;2.07;;
7503;SDS011;3793;48.136;11.536;2022-10-14T15:33:23;3.13;;;2.10;;
7503;SDS011;3793;48.136;11.536;2022-10-14T15:35:57;4.20;;;1.83;;
7503;SDS011;3793;48.136;11.536;2022-10-14T15:38:27;2.50;;;1.80;;
7503;SDS011;3793;48.136;11.536;2022-10-14T15:40:55;2.97;;;2.17;;